sensor_id;sensor_type;location;lat;lon;timestamp;P1;durP1;ratioP1;P2;durP2;ratioP2
39728;SDS011;25402;42.004;23.088;2023-04-24T00:00:26;7.07;;;5.30;;
39728;SDS011;25402;42.004;23.088;2023-04-24T00:02:53;8.52;;;5.40;;
39728;SDS011;25402;42.004;23.088;2023-04-24T00:05:23;7.53;;;5.32;;
39728;SDS011;25402;42.004;23.088;2023-04-24T00:07:49;8.25;;;5.30;;
39728;SDS011;25402;42.004;23.088;2023-04-24T00:10:17;9.10;;;5.53;;
39728;SDS011;25402;42.004;23.088;2023-04-24T00:12:44;7.90;;;5.35;;
39728;SDS011;25402;42.004;23.088;2023-04-24T00:15:12;8.45;;;5.15;;
39728;SDS011;25402;42.004;23.088;2023-04-24T00:17:38;11.43;;;6.40;;
39728;SDS011;25402;42.004;23.088;2023-04-24T00:20:05;13.10;;;6.57;;
39728;SDS011;25402;42.004;23.088;2023-04-24T00:22:32;12.45;;;5.68;;
39728;SDS011;25402;42.004;23.088;2023-04-24T00:24:59;8.85;;;5.18;;
39728;SDS011;25402;42.004;23.088;2023-04-24T00:27:25;9.38;;;5.88;;
39728;SDS011;25402;42.004;23.088;2023-04-24T00:29:52;10.70;;;5.35;;
39728;SDS011;25402;42.004;23.088;2023-04-24T00:32:20;10.07;;;5.03;;
39728;SDS011;25402;42.004;23.088;2023-04-24T00:34:46;8.70;;;4.90;;
39728;SDS011;25402;42.004;23.088;2023-04-24T00:37:13;6.55;;;4.90;;
39728;SDS011;25402;42.004;23.088;2023-04-24T00:39:40;6.38;;;4.95;;
39728;SDS011;25402;42.004;23.088;2023-04-24T00:42:06;10.30;;;5.13;;
39728;SDS011;25402;42.004;23.088;2023-04-24T00:44:33;7.75;;;4.78;;
39728;SDS011;25402;42.004;23.088;2023-04-24T00:47:00;10.60;;;4.80;;
39728;SDS011;25402;42.004;23.088;2023-04-24T00:49:28;6.32;;;4.78;;
39728;SDS011;25402;42.004;23.088;2023-04-24T00:51:55;10.35;;;5.25;;
39728;SDS011;25402;42.004;23.088;2023-04-24T00:54:21;8.35;;;5.18;;
39728;SDS011;25402;42.004;23.088;2023-04-24T00:56:48;7.70;;;5.47;;
39728;SDS011;25402;42.004;23.088;2023-04-24T00:59:16;9.18;;;5.63;;
39728;SDS011;25402;42.004;23.088;2023-04-24T01:01:43;7.95;;;5.30;;
39728;SDS011;25402;42.004;23.088;2023-04-24T01:04:11;10.00;;;6.35;;
39728;SDS011;25402;42.004;23.088;2023-04-24T01:06:39;8.98;;;6.20;;
39728;SDS011;25402;42.004;23.088;2023-04-24T01:09:06;11.10;;;6.65;;
39728;SDS011;25402;42.004;23.088;2023-04-24T01:11:33;12.38;;;6.18;;
39728;SDS011;25402;42.004;23.088;2023-04-24T01:14:00;9.73;;;5.47;;
39728;SDS011;25402;42.004;23.088;2023-04-24T01:16:27;10.35;;;5.28;;
39728;SDS011;25402;42.004;23.088;2023-04-24T01:18:54;8.15;;;5.15;;
39728;SDS011;25402;42.004;23.088;2023-04-24T01:21:20;8.95;;;5.18;;
39728;SDS011;25402;42.004;23.088;2023-04-24T01:23:49;10.52;;;5.03;;
39728;SDS011;25402;42.004;23.088;2023-04-24T01:26:17;10.20;;;5.50;;
39728;SDS011;25402;42.004;23.088;2023-04-24T01:28:45;8.55;;;5.43;;
39728;SDS011;25402;42.004;23.088;2023-04-24T01:31:11;7.32;;;5.32;;
39728;SDS011;25402;42.004;23.088;2023-04-24T01:33:38;9.02;;;5.78;;
39728;SDS011;25402;42.004;23.088;2023-04-24T01:36:04;9.43;;;5.55;;
39728;SDS011;25402;42.004;23.088;2023-04-24T01:38:32;6.75;;;5.30;;
39728;SDS011;25402;42.004;23.088;2023-04-24T01:41:00;10.23;;;5.47;;
39728;SDS011;25402;42.004;23.088;2023-04-24T01:43:27;9.18;;;5.72;;
39728;SDS011;25402;42.004;23.088;2023-04-24T01:45:54;10.85;;;5.28;;
39728;SDS011;25402;42.004;23.088;2023-04-24T01:48:20;8.10;;;5.35;;
39728;SDS011;25402;42.004;23.088;2023-04-24T01:50:47;15.27;;;5.40;;
39728;SDS011;25402;42.004;23.088;2023-04-24T01:53:14;16.02;;;5.60;;
39728;SDS011;25402;42.004;23.088;2023-04-24T01:55:40;10.45;;;5.43;;
39728;SDS011;25402;42.004;23.088;2023-04-24T01:58:08;12.77;;;6.00;;
39728;SDS011;25402;42.004;23.088;2023-04-24T02:00:35;6.43;;;5.22;;
39728;SDS011;25402;42.004;23.088;2023-04-24T02:03:02;10.13;;;6.32;;
39728;SDS011;25402;42.004;23.088;2023-04-24T02:05:28;9.50;;;5.47;;
39728;SDS011;25402;42.004;23.088;2023-04-24T02:07:55;7.30;;;5.40;;
39728;SDS011;25402;42.004;23.088;2023-04-24T02:10:22;12.43;;;6.15;;
39728;SDS011;25402;42.004;23.088;2023-04-24T02:12:50;9.70;;;5.75;;
39728;SDS011;25402;42.004;23.088;2023-04-24T02:15:18;8.32;;;5.43;;
39728;SDS011;25402;42.004;23.088;2023-04-24T02:17:44;12.52;;;6.32;;
39728;SDS011;25402;42.004;23.088;2023-04-24T02:20:11;8.88;;;5.55;;
39728;SDS011;25402;42.004;23.088;2023-04-24T02:22:38;13.10;;;6.25;;
39728;SDS011;25402;42.004;23.088;2023-04-24T02:25:04;11.52;;;6.43;;
39728;SDS011;25402;42.004;23.088;2023-04-24T02:27:31;13.45;;;6.00;;
39728;SDS011;25402;42.004;23.088;2023-04-24T02:29:58;14.18;;;6.97;;
39728;SDS011;25402;42.004;23.088;2023-04-24T02:32:26;13.23;;;6.22;;
39728;SDS011;25402;42.004;23.088;2023-04-24T02:34:52;17.92;;;6.50;;
39728;SDS011;25402;42.004;23.088;2023-04-24T02:37:19;11.43;;;6.22;;
39728;SDS011;25402;42.004;23.088;2023-04-24T02:39:45;9.73;;;6.57;;
39728;SDS011;25402;42.004;23.088;2023-04-24T02:42:12;12.68;;;6.88;;
39728;SDS011;25402;42.004;23.088;2023-04-24T02:44:38;20.70;;;7.07;;
39728;SDS011;25402;42.004;23.088;2023-04-24T02:47:05;13.77;;;7.55;;
39728;SDS011;25402;42.004;23.088;2023-04-24T02:49:34;12.88;;;7.78;;
39728;SDS011;25402;42.004;23.088;2023-04-24T02:52:00;12.98;;;7.32;;
39728;SDS011;25402;42.004;23.088;2023-04-24T02:54:27;12.18;;;7.05;;
39728;SDS011;25402;42.004;23.088;2023-04-24T02:56:53;8.35;;;5.97;;
39728;SDS011;25402;42.004;23.088;2023-04-24T02:59:20;11.95;;;5.75;;
39728;SDS011;25402;42.004;23.088;2023-04-24T03:01:46;9.18;;;5.75;;
39728;SDS011;25402;42.004;23.088;2023-04-24T03:04:13;7.60;;;5.50;;
39728;SDS011;25402;42.004;23.088;2023-04-24T03:06:42;9.45;;;5.53;;
39728;SDS011;25402;42.004;23.088;2023-04-24T03:09:08;7.53;;;5.45;;
39728;SDS011;25402;42.004;23.088;2023-04-24T03:11:35;7.93;;;5.40;;
39728;SDS011;25402;42.004;23.088;2023-04-24T03:14:01;10.27;;;6.38;;
39728;SDS011;25402;42.004;23.088;2023-04-24T03:16:28;12.90;;;5.80;;
39728;SDS011;25402;42.004;23.088;2023-04-24T03:18:54;10.32;;;5.70;;
39728;SDS011;25402;42.004;23.088;2023-04-24T03:21:21;25.33;;;6.10;;
39728;SDS011;25402;42.004;23.088;2023-04-24T03:23:49;27.25;;;7.97;;
39728;SDS011;25402;42.004;23.088;2023-04-24T03:26:16;17.17;;;7.75;;
39728;SDS011;25402;42.004;23.088;2023-04-24T03:28:42;9.25;;;6.05;;
39728;SDS011;25402;42.004;23.088;2023-04-24T03:31:09;11.35;;;6.13;;
39728;SDS011;25402;42.004;23.088;2023-04-24T03:33:36;17.70;;;6.18;;
39728;SDS011;25402;42.004;23.088;2023-04-24T03:36:02;8.63;;;5.55;;
39728;SDS011;25402;42.004;23.088;2023-04-24T03:38:29;12.65;;;7.10;;
39728;SDS011;25402;42.004;23.088;2023-04-24T03:40:57;15.07;;;8.65;;
39728;SDS011;25402;42.004;23.088;2023-04-24T03:43:23;15.88;;;5.05;;
39728;SDS011;25402;42.004;23.088;2023-04-24T03:45:52;18.95;;;5.43;;
39728;SDS011;25402;42.004;23.088;2023-04-24T03:48:18;11.95;;;5.65;;
39728;SDS011;25402;42.004;23.088;2023-04-24T03:50:45;18.55;;;5.45;;
39728;SDS011;25402;42.004;23.088;2023-04-24T03:53:12;15.30;;;5.47;;
39728;SDS011;25402;42.004;23.088;2023-04-24T03:55:38;10.85;;;6.30;;
39728;SDS011;25402;42.004;23.088;2023-04-24T03:58:06;11.95;;;6.93;;
39728;SDS011;25402;42.004;23.088;2023-04-24T04:00:33;10.02;;;5.32;;
39728;SDS011;25402;42.004;23.088;2023-04-24T04:02:59;13.02;;;5.90;;
39728;SDS011;25402;42.004;23.088;2023-04-24T04:05:26;8.43;;;6.20;;
39728;SDS011;25402;42.004;23.088;2023-04-24T04:07:52;10.88;;;5.50;;
39728;SDS011;25402;42.004;23.088;2023-04-24T04:10:19;10.20;;;5.95;;
39728;SDS011;25402;42.004;23.088;2023-04-24T04:12:46;11.15;;;6.10;;
39728;SDS011;25402;42.004;23.088;2023-04-24T04:15:13;13.93;;;5.53;;
39728;SDS011;25402;42.004;23.088;2023-04-24T04:17:40;16.70;;;5.50;;
39728;SDS011;25402;42.004;23.088;2023-04-24T04:20:07;7.57;;;5.55;;
39728;SDS011;25402;42.004;23.088;2023-04-24T04:22:35;14.00;;;5.50;;
39728;SDS011;25402;42.004;23.088;2023-04-24T04:25:01;9.68;;;5.88;;
39728;SDS011;25402;42.004;23.088;2023-04-24T04:27:28;14.10;;;5.38;;
39728;SDS011;25402;42.004;23.088;2023-04-24T04:29:57;10.13;;;4.85;;
39728;SDS011;25402;42.004;23.088;2023-04-24T04:32:25;12.90;;;5.30;;
39728;SDS011;25402;42.004;23.088;2023-04-24T04:34:52;13.93;;;5.68;;
39728;SDS011;25402;42.004;23.088;2023-04-24T04:37:19;30.33;;;6.72;;
39728;SDS011;25402;42.004;23.088;2023-04-24T04:39:46;16.35;;;6.70;;
39728;SDS011;25402;42.004;23.088;2023-04-24T04:42:12;20.67;;;8.02;;
39728;SDS011;25402;42.004;23.088;2023-04-24T04:44:40;18.67;;;7.60;;
39728;SDS011;25402;42.004;23.088;2023-04-24T04:47:07;12.10;;;5.88;;
39728;SDS011;25402;42.004;23.088;2023-04-24T04:49:37;13.68;;;6.13;;
39728;SDS011;25402;42.004;23.088;2023-04-24T04:52:03;13.75;;;5.90;;
39728;SDS011;25402;42.004;23.088;2023-04-24T04:54:30;23.08;;;12.85;;
39728;SDS011;25402;42.004;23.088;2023-04-24T04:56:57;14.18;;;8.07;;
39728;SDS011;25402;42.004;23.088;2023-04-24T04:59:24;20.52;;;7.70;;
39728;SDS011;25402;42.004;23.088;2023-04-24T05:01:51;14.30;;;7.03;;
39728;SDS011;25402;42.004;23.088;2023-04-24T05:04:20;16.85;;;7.35;;
39728;SDS011;25402;42.004;23.088;2023-04-24T05:06:49;19.27;;;6.47;;
39728;SDS011;25402;42.004;23.088;2023-04-24T05:09:16;54.10;;;8.45;;
39728;SDS011;25402;42.004;23.088;2023-04-24T05:11:44;20.92;;;6.30;;
39728;SDS011;25402;42.004;23.088;2023-04-24T05:14:11;17.52;;;6.65;;
39728;SDS011;25402;42.004;23.088;2023-04-24T05:16:38;16.48;;;7.10;;
39728;SDS011;25402;42.004;23.088;2023-04-24T05:19:05;23.23;;;6.45;;
39728;SDS011;25402;42.004;23.088;2023-04-24T05:21:32;17.58;;;6.50;;
39728;SDS011;25402;42.004;23.088;2023-04-24T05:24:00;16.67;;;5.88;;
39728;SDS011;25402;42.004;23.088;2023-04-24T05:26:27;12.77;;;5.07;;
39728;SDS011;25402;42.004;23.088;2023-04-24T05:28:53;10.15;;;4.80;;
39728;SDS011;25402;42.004;23.088;2023-04-24T05:31:20;9.95;;;4.93;;
39728;SDS011;25402;42.004;23.088;2023-04-24T05:33:47;7.22;;;4.10;;
39728;SDS011;25402;42.004;23.088;2023-04-24T05:36:14;14.35;;;4.72;;
39728;SDS011;25402;42.004;23.088;2023-04-24T05:38:40;13.85;;;5.00;;
39728;SDS011;25402;42.004;23.088;2023-04-24T05:41:08;8.02;;;4.03;;
39728;SDS011;25402;42.004;23.088;2023-04-24T05:43:35;8.68;;;4.20;;
39728;SDS011;25402;42.004;23.088;2023-04-24T05:46:01;11.80;;;4.53;;
39728;SDS011;25402;42.004;23.088;2023-04-24T05:48:28;11.05;;;3.95;;
39728;SDS011;25402;42.004;23.088;2023-04-24T05:50:55;13.75;;;4.10;;
39728;SDS011;25402;42.004;23.088;2023-04-24T05:53:22;8.63;;;4.20;;
39728;SDS011;25402;42.004;23.088;2023-04-24T05:55:49;13.02;;;4.47;;
39728;SDS011;25402;42.004;23.088;2023-04-24T05:58:18;23.45;;;4.95;;
39728;SDS011;25402;42.004;23.088;2023-04-24T06:00:45;8.70;;;3.78;;
39728;SDS011;25402;42.004;23.088;2023-04-24T06:03:12;10.95;;;4.10;;
39728;SDS011;25402;42.004;23.088;2023-04-24T06:05:41;7.03;;;3.95;;
39728;SDS011;25402;42.004;23.088;2023-04-24T06:11:08;17.67;;;3.70;;
39728;SDS011;25402;42.004;23.088;2023-04-24T06:13:54;9.30;;;4.57;;
39728;SDS011;25402;42.004;23.088;2023-04-24T06:16:20;11.30;;;3.65;;
39728;SDS011;25402;42.004;23.088;2023-04-24T06:18:47;20.67;;;3.80;;
39728;SDS011;25402;42.004;23.088;2023-04-24T06:21:14;6.78;;;3.83;;
39728;SDS011;25402;42.004;23.088;2023-04-24T06:23:41;9.73;;;4.13;;
39728;SDS011;25402;42.004;23.088;2023-04-24T06:26:07;11.45;;;4.28;;
39728;SDS011;25402;42.004;23.088;2023-04-24T06:28:34;6.80;;;3.75;;
39728;SDS011;25402;42.004;23.088;2023-04-24T06:31:02;11.77;;;3.90;;
39728;SDS011;25402;42.004;23.088;2023-04-24T06:33:29;7.90;;;4.22;;
39728;SDS011;25402;42.004;23.088;2023-04-24T06:35:56;15.32;;;4.65;;
39728;SDS011;25402;42.004;23.088;2023-04-24T06:38:22;9.77;;;3.58;;
39728;SDS011;25402;42.004;23.088;2023-04-24T06:40:49;7.22;;;3.60;;
39728;SDS011;25402;42.004;23.088;2023-04-24T06:43:16;6.32;;;3.40;;
39728;SDS011;25402;42.004;23.088;2023-04-24T06:45:42;10.68;;;4.10;;
39728;SDS011;25402;42.004;23.088;2023-04-24T06:48:11;11.60;;;4.03;;
39728;SDS011;25402;42.004;23.088;2023-04-24T06:53:13;8.00;;;3.90;;
39728;SDS011;25402;42.004;23.088;2023-04-24T06:55:42;10.85;;;4.30;;
39728;SDS011;25402;42.004;23.088;2023-04-24T06:58:10;11.98;;;3.95;;
39728;SDS011;25402;42.004;23.088;2023-04-24T07:00:36;12.13;;;4.40;;
39728;SDS011;25402;42.004;23.088;2023-04-24T07:03:04;16.65;;;4.30;;
39728;SDS011;25402;42.004;23.088;2023-04-24T07:05:35;10.57;;;3.90;;
39728;SDS011;25402;42.004;23.088;2023-04-24T07:08:03;17.33;;;8.55;;
39728;SDS011;25402;42.004;23.088;2023-04-24T07:10:33;11.10;;;4.03;;
39728;SDS011;25402;42.004;23.088;2023-04-24T07:13:00;10.43;;;4.68;;
39728;SDS011;25402;42.004;23.088;2023-04-24T07:15:27;8.50;;;4.97;;
39728;SDS011;25402;42.004;23.088;2023-04-24T07:17:54;9.60;;;4.72;;
39728;SDS011;25402;42.004;23.088;2023-04-24T07:20:21;14.48;;;4.47;;
39728;SDS011;25402;42.004;23.088;2023-04-24T07:22:49;10.18;;;3.72;;
39728;SDS011;25402;42.004;23.088;2023-04-24T07:25:17;5.13;;;3.88;;
39728;SDS011;25402;42.004;23.088;2023-04-24T07:27:43;10.68;;;4.10;;
39728;SDS011;25402;42.004;23.088;2023-04-24T07:30:11;9.57;;;3.85;;
39728;SDS011;25402;42.004;23.088;2023-04-24T07:32:38;5.97;;;3.83;;
39728;SDS011;25402;42.004;23.088;2023-04-24T07:35:05;8.00;;;3.63;;
39728;SDS011;25402;42.004;23.088;2023-04-24T07:37:31;11.05;;;3.67;;
39728;SDS011;25402;42.004;23.088;2023-04-24T07:39:59;7.95;;;4.28;;
39728;SDS011;25402;42.004;23.088;2023-04-24T07:42:26;11.20;;;3.97;;
39728;SDS011;25402;42.004;23.088;2023-04-24T07:44:55;7.70;;;3.70;;
39728;SDS011;25402;42.004;23.088;2023-04-24T07:47:22;7.93;;;3.67;;
39728;SDS011;25402;42.004;23.088;2023-04-24T07:49:48;6.55;;;4.03;;
39728;SDS011;25402;42.004;23.088;2023-04-24T07:52:15;12.43;;;4.03;;
39728;SDS011;25402;42.004;23.088;2023-04-24T07:54:41;9.90;;;4.32;;
39728;SDS011;25402;42.004;23.088;2023-04-24T07:57:10;12.07;;;4.22;;
39728;SDS011;25402;42.004;23.088;2023-04-24T07:59:37;13.90;;;3.95;;
39728;SDS011;25402;42.004;23.088;2023-04-24T08:02:03;9.80;;;4.07;;
39728;SDS011;25402;42.004;23.088;2023-04-24T08:04:31;8.25;;;4.00;;
39728;SDS011;25402;42.004;23.088;2023-04-24T08:06:57;13.18;;;5.28;;
39728;SDS011;25402;42.004;23.088;2023-04-24T08:09:25;18.75;;;5.32;;
39728;SDS011;25402;42.004;23.088;2023-04-24T08:11:52;36.28;;;8.02;;
39728;SDS011;25402;42.004;23.088;2023-04-24T08:14:20;19.30;;;5.90;;
39728;SDS011;25402;42.004;23.088;2023-04-24T08:16:49;22.80;;;7.63;;
39728;SDS011;25402;42.004;23.088;2023-04-24T08:19:16;23.00;;;9.45;;
39728;SDS011;25402;42.004;23.088;2023-04-24T08:21:43;18.70;;;6.85;;
39728;SDS011;25402;42.004;23.088;2023-04-24T08:24:10;9.23;;;4.60;;
39728;SDS011;25402;42.004;23.088;2023-04-24T08:26:37;8.48;;;5.18;;
39728;SDS011;25402;42.004;23.088;2023-04-24T08:29:04;16.58;;;6.13;;
39728;SDS011;25402;42.004;23.088;2023-04-24T08:31:33;11.00;;;4.60;;
39728;SDS011;25402;42.004;23.088;2023-04-24T08:34:00;8.18;;;4.15;;
39728;SDS011;25402;42.004;23.088;2023-04-24T08:36:27;19.35;;;4.75;;
39728;SDS011;25402;42.004;23.088;2023-04-24T08:38:53;22.75;;;4.70;;
39728;SDS011;25402;42.004;23.088;2023-04-24T08:41:20;8.30;;;4.15;;
39728;SDS011;25402;42.004;23.088;2023-04-24T08:43:49;12.23;;;3.60;;
39728;SDS011;25402;42.004;23.088;2023-04-24T08:46:16;8.07;;;3.83;;
39728;SDS011;25402;42.004;23.088;2023-04-24T08:48:49;11.02;;;3.95;;
39728;SDS011;25402;42.004;23.088;2023-04-24T08:51:16;9.00;;;3.88;;
39728;SDS011;25402;42.004;23.088;2023-04-24T08:53:43;5.82;;;4.07;;
39728;SDS011;25402;42.004;23.088;2023-04-24T08:56:10;6.38;;;4.05;;
39728;SDS011;25402;42.004;23.088;2023-04-24T08:58:37;9.35;;;3.90;;
39728;SDS011;25402;42.004;23.088;2023-04-24T09:01:04;12.10;;;4.38;;
39728;SDS011;25402;42.004;23.088;2023-04-24T09:03:33;21.15;;;5.75;;
39728;SDS011;25402;42.004;23.088;2023-04-24T09:06:01;11.25;;;3.90;;
39728;SDS011;25402;42.004;23.088;2023-04-24T09:08:31;13.27;;;3.80;;
39728;SDS011;25402;42.004;23.088;2023-04-24T09:10:58;7.78;;;3.92;;
39728;SDS011;25402;42.004;23.088;2023-04-24T09:13:28;9.45;;;4.45;;
39728;SDS011;25402;42.004;23.088;2023-04-24T09:15:56;16.98;;;5.07;;
39728;SDS011;25402;42.004;23.088;2023-04-24T09:18:25;11.38;;;4.30;;
39728;SDS011;25402;42.004;23.088;2023-04-24T09:21:03;7.28;;;3.85;;
39728;SDS011;25402;42.004;23.088;2023-04-24T09:23:31;15.20;;;5.05;;
39728;SDS011;25402;42.004;23.088;2023-04-24T09:25:58;9.93;;;4.38;;
39728;SDS011;25402;42.004;23.088;2023-04-24T09:28:27;13.75;;;3.55;;
39728;SDS011;25402;42.004;23.088;2023-04-24T09:31:02;9.70;;;4.28;;
39728;SDS011;25402;42.004;23.088;2023-04-24T09:33:29;9.07;;;4.22;;
39728;SDS011;25402;42.004;23.088;2023-04-24T09:35:56;10.05;;;4.22;;
39728;SDS011;25402;42.004;23.088;2023-04-24T09:38:31;4.93;;;3.40;;
39728;SDS011;25402;42.004;23.088;2023-04-24T09:40:59;15.02;;;4.35;;
39728;SDS011;25402;42.004;23.088;2023-04-24T09:43:26;5.32;;;3.70;;
39728;SDS011;25402;42.004;23.088;2023-04-24T09:45:55;7.75;;;4.15;;
39728;SDS011;25402;42.004;23.088;2023-04-24T09:48:29;12.32;;;4.07;;
39728;SDS011;25402;42.004;23.088;2023-04-24T09:50:57;6.55;;;3.63;;
39728;SDS011;25402;42.004;23.088;2023-04-24T09:53:25;9.88;;;3.85;;
39728;SDS011;25402;42.004;23.088;2023-04-24T09:55:53;12.23;;;4.15;;
39728;SDS011;25402;42.004;23.088;2023-04-24T09:58:24;9.77;;;4.07;;
39728;SDS011;25402;42.004;23.088;2023-04-24T10:00:53;9.15;;;4.50;;
39728;SDS011;25402;42.004;23.088;2023-04-24T10:03:20;9.50;;;3.85;;
39728;SDS011;25402;42.004;23.088;2023-04-24T10:05:48;7.30;;;3.33;;
39728;SDS011;25402;42.004;23.088;2023-04-24T10:08:15;4.97;;;3.67;;
39728;SDS011;25402;42.004;23.088;2023-04-24T10:10:43;6.82;;;3.67;;
39728;SDS011;25402;42.004;23.088;2023-04-24T10:13:11;18.70;;;3.97;;
39728;SDS011;25402;42.004;23.088;2023-04-24T10:15:39;7.15;;;3.03;;
39728;SDS011;25402;42.004;23.088;2023-04-24T10:18:07;11.45;;;4.30;;
39728;SDS011;25402;42.004;23.088;2023-04-24T10:20:35;13.75;;;3.80;;
39728;SDS011;25402;42.004;23.088;2023-04-24T10:23:02;6.80;;;3.40;;
39728;SDS011;25402;42.004;23.088;2023-04-24T10:25:32;12.20;;;3.67;;
39728;SDS011;25402;42.004;23.088;2023-04-24T10:27:59;5.15;;;3.50;;
39728;SDS011;25402;42.004;23.088;2023-04-24T10:30:32;5.72;;;3.40;;
39728;SDS011;25402;42.004;23.088;2023-04-24T10:33:02;10.35;;;3.80;;
39728;SDS011;25402;42.004;23.088;2023-04-24T10:35:30;7.22;;;3.47;;
39728;SDS011;25402;42.004;23.088;2023-04-24T10:37:59;4.68;;;3.60;;
39728;SDS011;25402;42.004;23.088;2023-04-24T10:40:30;5.65;;;3.08;;
39728;SDS011;25402;42.004;23.088;2023-04-24T10:42:57;5.30;;;3.28;;
39728;SDS011;25402;42.004;23.088;2023-04-24T10:45:24;8.07;;;3.42;;
39728;SDS011;25402;42.004;23.088;2023-04-24T10:48:00;8.48;;;3.13;;
39728;SDS011;25402;42.004;23.088;2023-04-24T10:50:28;6.32;;;3.58;;
39728;SDS011;25402;42.004;23.088;2023-04-24T10:53:04;5.78;;;3.53;;
39728;SDS011;25402;42.004;23.088;2023-04-24T10:58:16;9.63;;;3.55;;
39728;SDS011;25402;42.004;23.088;2023-04-24T11:00:43;9.60;;;4.00;;
39728;SDS011;25402;42.004;23.088;2023-04-24T11:03:24;8.38;;;2.95;;
39728;SDS011;25402;42.004;23.088;2023-04-24T11:05:52;51.45;;;5.75;;
39728;SDS011;25402;42.004;23.088;2023-04-24T11:08:26;15.85;;;3.42;;
39728;SDS011;25402;42.004;23.088;2023-04-24T11:11:00;11.50;;;3.17;;
39728;SDS011;25402;42.004;23.088;2023-04-24T11:14:00;27.08;;;4.20;;
39728;SDS011;25402;42.004;23.088;2023-04-24T11:16:19;8.98;;;3.50;;
39728;SDS011;25402;42.004;23.088;2023-04-24T11:18:51;17.30;;;3.55;;
39728;SDS011;25402;42.004;23.088;2023-04-24T11:21:22;13.68;;;3.85;;
39728;SDS011;25402;42.004;23.088;2023-04-24T11:23:49;10.80;;;3.67;;
39728;SDS011;25402;42.004;23.088;2023-04-24T11:26:25;6.50;;;3.58;;
39728;SDS011;25402;42.004;23.088;2023-04-24T11:29:05;6.70;;;2.90;;
39728;SDS011;25402;42.004;23.088;2023-04-24T11:31:36;11.77;;;3.25;;
39728;SDS011;25402;42.004;23.088;2023-04-24T11:34:09;10.77;;;3.17;;
39728;SDS011;25402;42.004;23.088;2023-04-24T11:36:37;5.80;;;3.22;;
39728;SDS011;25402;42.004;23.088;2023-04-24T11:39:04;12.60;;;3.40;;
39728;SDS011;25402;42.004;23.088;2023-04-24T11:41:31;8.52;;;3.42;;
39728;SDS011;25402;42.004;23.088;2023-04-24T11:43:57;6.57;;;3.47;;
39728;SDS011;25402;42.004;23.088;2023-04-24T11:46:27;12.70;;;4.10;;
39728;SDS011;25402;42.004;23.088;2023-04-24T11:48:54;10.50;;;3.78;;
39728;SDS011;25402;42.004;23.088;2023-04-24T11:51:26;7.65;;;3.53;;
39728;SDS011;25402;42.004;23.088;2023-04-24T11:56:21;10.18;;;3.60;;
39728;SDS011;25402;42.004;23.088;2023-04-24T11:58:51;11.10;;;3.42;;
39728;SDS011;25402;42.004;23.088;2023-04-24T12:01:19;10.13;;;3.45;;
39728;SDS011;25402;42.004;23.088;2023-04-24T12:03:47;22.38;;;7.00;;
39728;SDS011;25402;42.004;23.088;2023-04-24T12:06:16;14.73;;;4.63;;
39728;SDS011;25402;42.004;23.088;2023-04-24T12:08:47;13.80;;;8.95;;
39728;SDS011;25402;42.004;23.088;2023-04-24T12:11:15;7.53;;;3.47;;
39728;SDS011;25402;42.004;23.088;2023-04-24T12:13:43;10.32;;;3.63;;
39728;SDS011;25402;42.004;23.088;2023-04-24T12:16:10;12.48;;;5.70;;
39728;SDS011;25402;42.004;23.088;2023-04-24T12:18:41;41.75;;;4.10;;
39728;SDS011;25402;42.004;23.088;2023-04-24T12:23:37;8.35;;;3.50;;
39728;SDS011;25402;42.004;23.088;2023-04-24T12:26:06;7.78;;;3.67;;
39728;SDS011;25402;42.004;23.088;2023-04-24T12:28:37;14.95;;;3.55;;
39728;SDS011;25402;42.004;23.088;2023-04-24T12:31:03;9.27;;;3.72;;
39728;SDS011;25402;42.004;23.088;2023-04-24T12:33:32;19.67;;;3.72;;
39728;SDS011;25402;42.004;23.088;2023-04-24T12:35:59;6.78;;;3.40;;
39728;SDS011;25402;42.004;23.088;2023-04-24T12:38:27;7.60;;;3.33;;
39728;SDS011;25402;42.004;23.088;2023-04-24T12:41:04;8.73;;;3.22;;
39728;SDS011;25402;42.004;23.088;2023-04-24T12:43:33;8.93;;;3.35;;
39728;SDS011;25402;42.004;23.088;2023-04-24T12:45:59;11.20;;;3.47;;
39728;SDS011;25402;42.004;23.088;2023-04-24T12:48:28;8.05;;;3.08;;
39728;SDS011;25402;42.004;23.088;2023-04-24T12:50:54;7.07;;;3.90;;
39728;SDS011;25402;42.004;23.088;2023-04-24T12:53:21;6.32;;;3.63;;
39728;SDS011;25402;42.004;23.088;2023-04-24T12:55:50;6.68;;;3.78;;
39728;SDS011;25402;42.004;23.088;2023-04-24T12:58:19;4.90;;;3.00;;
39728;SDS011;25402;42.004;23.088;2023-04-24T13:00:48;9.82;;;3.53;;
39728;SDS011;25402;42.004;23.088;2023-04-24T13:03:17;8.23;;;3.63;;
39728;SDS011;25402;42.004;23.088;2023-04-24T13:05:44;7.55;;;3.78;;
39728;SDS011;25402;42.004;23.088;2023-04-24T13:08:11;6.03;;;3.22;;
39728;SDS011;25402;42.004;23.088;2023-04-24T13:10:39;6.10;;;3.30;;
39728;SDS011;25402;42.004;23.088;2023-04-24T13:13:06;9.80;;;3.50;;
39728;SDS011;25402;42.004;23.088;2023-04-24T13:15:33;6.78;;;3.33;;
39728;SDS011;25402;42.004;23.088;2023-04-24T13:18:02;6.32;;;3.30;;
39728;SDS011;25402;42.004;23.088;2023-04-24T13:20:30;6.68;;;3.25;;
39728;SDS011;25402;42.004;23.088;2023-04-24T13:22:57;4.97;;;3.50;;
39728;SDS011;25402;42.004;23.088;2023-04-24T13:25:24;13.50;;;3.58;;
39728;SDS011;25402;42.004;23.088;2023-04-24T13:27:53;7.47;;;3.25;;
39728;SDS011;25402;42.004;23.088;2023-04-24T13:30:22;6.93;;;3.28;;
39728;SDS011;25402;42.004;23.088;2023-04-24T13:32:49;6.35;;;3.78;;
39728;SDS011;25402;42.004;23.088;2023-04-24T13:35:17;7.28;;;3.88;;
39728;SDS011;25402;42.004;23.088;2023-04-24T13:37:43;9.07;;;3.35;;
39728;SDS011;25402;42.004;23.088;2023-04-24T13:40:11;5.55;;;3.38;;
39728;SDS011;25402;42.004;23.088;2023-04-24T13:42:38;8.43;;;3.50;;
39728;SDS011;25402;42.004;23.088;2023-04-24T13:45:05;17.23;;;3.88;;
39728;SDS011;25402;42.004;23.088;2023-04-24T13:47:31;7.15;;;3.33;;
39728;SDS011;25402;42.004;23.088;2023-04-24T13:49:59;6.75;;;3.47;;
39728;SDS011;25402;42.004;23.088;2023-04-24T13:52:27;4.32;;;3.03;;
39728;SDS011;25402;42.004;23.088;2023-04-24T13:54:55;8.02;;;3.40;;
39728;SDS011;25402;42.004;23.088;2023-04-24T13:57:22;3.35;;;3.05;;
39728;SDS011;25402;42.004;23.088;2023-04-24T13:59:48;5.78;;;3.97;;
39728;SDS011;25402;42.004;23.088;2023-04-24T14:02:16;18.73;;;4.85;;
39728;SDS011;25402;42.004;23.088;2023-04-24T14:04:42;23.30;;;5.82;;
39728;SDS011;25402;42.004;23.088;2023-04-24T14:07:09;10.75;;;5.05;;
39728;SDS011;25402;42.004;23.088;2023-04-24T14:09:37;11.45;;;5.00;;
39728;SDS011;25402;42.004;23.088;2023-04-24T14:12:04;6.55;;;4.13;;
39728;SDS011;25402;42.004;23.088;2023-04-24T14:14:32;12.63;;;3.72;;
39728;SDS011;25402;42.004;23.088;2023-04-24T14:16:58;6.05;;;3.78;;
39728;SDS011;25402;42.004;23.088;2023-04-24T14:19:25;12.48;;;4.18;;
39728;SDS011;25402;42.004;23.088;2023-04-24T14:21:51;8.85;;;3.80;;
39728;SDS011;25402;42.004;23.088;2023-04-24T14:24:18;9.27;;;3.72;;
39728;SDS011;25402;42.004;23.088;2023-04-24T14:26:46;5.47;;;3.55;;
39728;SDS011;25402;42.004;23.088;2023-04-24T14:29:13;6.95;;;4.30;;
39728;SDS011;25402;42.004;23.088;2023-04-24T14:31:40;7.80;;;3.50;;
39728;SDS011;25402;42.004;23.088;2023-04-24T14:34:07;10.77;;;3.95;;
39728;SDS011;25402;42.004;23.088;2023-04-24T14:36:33;6.75;;;3.50;;
39728;SDS011;25402;42.004;23.088;2023-04-24T14:39:00;5.78;;;3.60;;
39728;SDS011;25402;42.004;23.088;2023-04-24T14:41:30;7.85;;;3.55;;
39728;SDS011;25402;42.004;23.088;2023-04-24T14:43:58;7.13;;;3.75;;